Time;durP1;ratioP1;P1;durP2;ratioP2;P2;SDS_P1;SDS_P2;PMS_P1;PMS_P2;Temp;Humidity;BMP_temperature;BMP_pressure;BME280_temperature;BME280_humidity;BME280_pressure;Samples;Min_cycle;Max_cycle;Signal;HPM_P1;HPM_P2
2023/02/25 00:01:38;;;;;;;18.65;10.23;;;3.60;99.90;;;;;;5071592;28;20525;-71
2023/02/25 00:04:05;;;;;;;17.55;9.45;;;3.60;99.90;;;;;;5070916;28;20499;-73
2023/02/25 00:06:33;;;;;;;19.05;10.07;;;3.60;99.90;;;;;;5046428;28;20056;-71
2023/02/25 00:09:00;;;;;;;19.17;10.25;;;3.60;99.90;;;;;;5086965;28;20040;-70
2023/02/25 00:11:29;;;;;;;17.92;10.48;;;3.60;99.90;;;;;;5057367;28;20053;-72
2023/02/25 00:13:56;;;;;;;20.23;11.02;;;3.60;99.90;;;;;;5068600;28;20054;-72
2023/02/25 00:16:24;;;;;;;19.25;10.65;;;3.60;99.90;;;;;;5070358;28;20079;-71
2023/02/25 00:18:56;;;;;;;20.08;11.20;;;3.60;99.90;;;;;;5071026;28;20059;-72
2023/02/25 00:21:24;;;;;;;23.73;11.60;;;3.70;99.90;;;;;;5070491;28;20072;-71
2023/02/25 00:23:52;;;;;;;21.05;11.05;;;3.60;99.90;;;;;;5086621;28;20043;-70
2023/02/25 00:26:20;;;;;;;18.55;10.43;;;3.60;99.90;;;;;;5038813;28;20051;-71
2023/02/25 00:28:48;;;;;;;20.15;10.75;;;3.60;99.90;;;;;;5069733;28;20056;-71
2023/02/25 00:31:19;;;;;;;19.40;10.25;;;3.60;99.90;;;;;;5070005;28;20425;-71
2023/02/25 00:33:47;;;;;;;20.63;10.27;;;3.60;99.90;;;;;;5071707;28;20094;-71
2023/02/25 00:36:21;;;;;;;18.55;9.35;;;3.50;99.90;;;;;;5070144;28;20102;-71
2023/02/25 00:38:52;;;;;;;19.17;9.13;;;3.50;99.90;;;;;;5069773;28;20059;-71
2023/02/25 00:41:23;;;;;;;15.75;9.25;;;3.50;99.90;;;;;;5070177;28;20439;-70
2023/02/25 00:43:52;;;;;;;16.73;9.48;;;3.60;99.90;;;;;;5058916;28;20391;-70
2023/02/25 00:46:21;;;;;;;12.80;7.90;;;3.60;99.90;;;;;;5080055;28;20063;-71
2023/02/25 00:48:50;;;;;;;15.18;9.10;;;3.60;99.90;;;;;;5052238;28;20044;-72
2023/02/25 00:51:24;;;;;;;17.75;8.60;;;3.60;99.90;;;;;;5079320;28;20082;-74
2023/02/25 00:53:52;;;;;;;12.95;8.18;;;3.60;99.90;;;;;;5056561;28;20055;-72
2023/02/25 00:56:20;;;;;;;13.48;8.02;;;3.60;99.90;;;;;;5061234;28;20053;-71
2023/02/25 00:58:49;;;;;;;15.07;7.70;;;3.60;99.90;;;;;;5054479;28;20056;-73
2023/02/25 01:01:32;;;;;;;17.88;8.90;;;3.70;99.90;;;;;;5068150;28;20418;-73
2023/02/25 01:04:00;;;;;;;15.73;7.80;;;3.60;99.90;;;;;;5064972;28;20064;-73
2023/02/25 01:06:29;;;;;;;12.93;7.43;;;3.60;99.90;;;;;;5070288;28;20036;-72
2023/02/25 01:09:06;;;;;;;14.25;7.45;;;3.50;99.90;;;;;;5067283;28;20524;-72
2023/02/25 01:11:35;;;;;;;13.13;7.00;;;3.50;99.90;;;;;;5063242;28;20049;-71
2023/02/25 01:14:06;;;;;;;12.60;6.88;;;3.30;99.90;;;;;;5061955;28;20052;-72
2023/02/25 01:16:35;;;;;;;14.63;7.25;;;3.30;99.90;;;;;;5067971;28;20040;-71
2023/02/25 01:19:08;;;;;;;16.20;7.68;;;3.30;99.90;;;;;;5066182;28;20495;-73
2023/02/25 01:21:36;;;;;;;;;;;3.30;99.90;;;;;;5046705;28;20461;-73
2023/02/25 01:24:13;;;;;;;16.23;8.57;;;3.20;99.90;;;;;;5065750;28;19928;-70
2023/02/25 01:26:42;;;;;;;15.80;8.80;;;3.20;99.90;;;;;;5066975;28;20064;-69
2023/02/25 01:29:14;;;;;;;16.05;9.93;;;3.20;99.90;;;;;;5065733;28;20115;-70
2023/02/25 01:31:43;;;;;;;15.75;8.70;;;3.20;99.90;;;;;;5065732;28;20448;-71
2023/02/25 01:34:16;;;;;;;18.23;10.23;;;3.20;99.90;;;;;;5065894;28;20110;-72
2023/02/25 01:36:44;;;;;;;16.83;8.65;;;3.20;99.90;;;;;;5066112;28;20117;-70
2023/02/25 01:39:13;;;;;;;23.35;11.40;;;3.30;99.90;;;;;;5045984;28;20047;-72
2023/02/25 01:41:41;;;;;;;17.92;9.73;;;3.20;99.90;;;;;;5063853;28;20121;-69
2023/02/25 01:44:13;;;;;;;16.65;10.00;;;3.20;99.90;;;;;;5066819;28;20064;-71
2023/02/25 01:46:43;;;;;;;20.65;9.90;;;3.30;99.90;;;;;;5066809;28;20471;-71
2023/02/25 01:49:14;;;;;;;21.02;10.20;;;3.30;99.90;;;;;;5046070;28;20452;-71
2023/02/25 01:51:45;;;;;;;21.95;11.07;;;3.30;99.90;;;;;;5028632;28;20045;-72
2023/02/25 01:54:14;;;;;;;20.02;10.57;;;3.20;99.90;;;;;;5012330;28;20136;-74
2023/02/25 01:56:47;;;;;;;19.27;10.07;;;3.20;99.90;;;;;;5043482;28;20040;-68
2023/02/25 01:59:16;;;;;;;20.48;11.20;;;3.20;99.90;;;;;;5049691;28;20069;-74
2023/02/25 02:01:44;;;;;;;16.90;9.23;;;3.20;99.90;;;;;;5044292;28;20085;-73
2023/02/25 02:04:14;;;;;;;18.38;10.15;;;3.10;99.90;;;;;;5064943;28;20048;-71
2023/02/25 02:06:47;;;;;;;23.52;10.50;;;3.10;99.90;;;;;;5036803;28;20045;-72
2023/02/25 02:09:21;;;;;;;18.45;10.07;;;3.10;99.90;;;;;;5048877;28;20036;-71
2023/02/25 02:11:49;;;;;;;16.52;9.10;;;3.10;99.90;;;;;;5052505;28;20045;-72
2023/02/25 02:14:35;;;;;;;17.10;8.90;;;3.10;99.90;;;;;;5046147;28;20055;-68
2023/02/25 02:17:14;;;;;;;19.27;9.32;;;3.20;99.90;;;;;;5045275;28;20388;-67
2023/02/25 02:19:50;;;;;;;16.70;8.02;;;3.20;99.90;;;;;;5019099;28;20041;-68
2023/02/25 02:22:35;;;;;;;16.27;8.45;;;3.30;99.90;;;;;;5028692;28;20376;-67
2023/02/25 02:25:21;;;;;;;19.77;8.63;;;3.20;99.90;;;;;;5030585;28;20048;-67
2023/02/25 02:28:10;;;;;;;15.98;7.43;;;3.20;99.90;;;;;;5034847;28;20123;-66
2023/02/25 02:30:50;;;;;;;14.32;8.05;;;3.30;99.90;;;;;;5049463;28;20102;-67
2023/02/25 02:33:35;;;;;;;15.45;8.18;;;3.20;99.90;;;;;;5031882;28;20036;-67
2023/02/25 02:36:12;;;;;;;14.13;7.97;;;3.30;99.90;;;;;;5050414;28;20033;-67
2023/02/25 02:38:42;;;;;;;14.77;7.25;;;3.20;99.90;;;;;;5044472;28;20056;-67
2023/02/25 02:41:34;;;;;;;14.07;7.22;;;3.20;99.90;;;;;;5029687;28;20426;-65
2023/02/25 02:44:05;;;;;;;19.65;8.55;;;3.20;99.90;;;;;;5059803;28;20048;-66
2023/02/25 02:46:41;;;;;;;16.23;7.27;;;3.20;99.90;;;;;;5049524;28;20214;-67
2023/02/25 02:49:14;;;;;;;15.30;7.57;;;3.20;99.90;;;;;;5051635;28;20127;-66
2023/02/25 02:51:50;;;;;;;13.00;6.65;;;3.20;99.90;;;;;;5049965;28;20028;-67
2023/02/25 02:54:19;;;;;;;15.98;6.88;;;3.20;99.90;;;;;;5088838;28;20398;-67
2023/02/25 02:56:50;;;;;;;13.48;7.07;;;3.20;99.90;;;;;;5086051;28;20109;-68
2023/02/25 02:59:31;;;;;;;13.77;6.70;;;3.20;99.90;;;;;;5065854;28;20198;-68
2023/02/25 03:02:08;;;;;;;13.68;6.78;;;3.20;99.90;;;;;;5059949;28;20048;-67
2023/02/25 03:04:37;;;;;;;11.60;6.63;;;3.20;99.90;;;;;;5068285;28;20126;-66
2023/02/25 03:07:09;;;;;;;13.50;6.53;;;3.20;99.90;;;;;;5066775;28;20045;-67
2023/02/25 03:09:44;;;;;;;17.65;6.70;;;3.30;99.90;;;;;;5052269;28;20498;-68
2023/02/25 03:12:12;;;;;;;14.52;6.80;;;3.40;99.90;;;;;;5066979;28;20040;-68
2023/02/25 03:14:39;;;;;;;13.90;6.50;;;3.30;99.90;;;;;;5051621;28;20049;-68
2023/02/25 03:17:27;;;;;;;12.70;6.35;;;3.40;99.90;;;;;;5067471;28;20048;-67
2023/02/25 03:20:17;;;;;;;12.60;6.97;;;3.30;99.90;;;;;;5052024;28;20116;-68
2023/02/25 03:22:48;;;;;;;11.88;6.90;;;3.30;99.90;;;;;;5048598;28;20110;-68
2023/02/25 03:25:34;;;;;;;12.68;6.50;;;3.30;99.90;;;;;;5035738;28;20562;-67
2023/02/25 03:28:13;;;;;;;12.65;5.97;;;3.40;99.90;;;;;;5029006;28;20389;-68
2023/02/25 03:30:47;;;;;;;12.38;5.75;;;3.30;99.90;;;;;;5028178;28;20045;-67
2023/02/25 03:33:33;;;;;;;12.63;5.70;;;3.40;99.90;;;;;;5030214;28;20480;-67
2023/02/25 03:36:10;;;;;;;12.88;6.38;;;3.40;99.90;;;;;;5030266;28;20038;-68
2023/02/25 03:38:43;;;;;;;12.43;5.32;;;3.30;99.90;;;;;;5048284;28;20041;-67
2023/02/25 03:41:13;;;;;;;14.25;5.72;;;3.30;99.90;;;;;;5051389;28;20137;-67
2023/02/25 03:43:51;;;;;;;10.05;4.75;;;3.30;99.90;;;;;;5047016;28;20063;-67
2023/02/25 03:46:20;;;;;;;11.32;5.00;;;3.30;99.90;;;;;;5050913;28;20094;-67
2023/02/25 03:48:50;;;;;;;8.82;4.80;;;3.30;99.90;;;;;;5028341;28;20121;-68
2023/02/25 03:51:21;;;;;;;11.20;4.80;;;3.30;99.90;;;;;;5027322;28;20060;-68
2023/02/25 03:53:49;;;;;;;10.05;4.70;;;3.30;99.90;;;;;;5027374;28;20433;-67
2023/02/25 03:56:25;;;;;;;10.30;4.35;;;3.30;99.90;;;;;;5034410;28;20437;-68
2023/02/25 03:58:53;;;;;;;10.77;4.72;;;3.30;99.90;;;;;;5029735;28;20045;-67
2023/02/25 04:01:26;;;;;;;10.75;4.40;;;3.30;99.90;;;;;;5049622;28;20531;-68
2023/02/25 04:03:53;;;;;;;8.70;4.70;;;3.20;99.90;;;;;;5039617;28;20408;-68
2023/02/25 04:06:23;;;;;;;9.43;5.18;;;3.20;99.90;;;;;;5028683;28;20045;-68
2023/02/25 04:08:51;;;;;;;13.88;5.07;;;3.20;99.90;;;;;;5017348;28;20036;-68
2023/02/25 04:11:19;;;;;;;12.82;4.35;;;3.10;99.90;;;;;;5033281;28;20415;-68
2023/02/25 04:13:47;;;;;;;13.85;4.70;;;3.10;99.90;;;;;;5026890;28;20112;-68
2023/02/25 04:16:14;;;;;;;12.23;4.55;;;3.00;99.90;;;;;;5026847;28;20373;-67
2023/02/25 04:18:42;;;;;;;9.10;4.15;;;3.00;99.90;;;;;;5028281;28;20103;-68
2023/02/25 04:21:31;;;;;;;10.68;4.25;;;3.00;99.90;;;;;;5027746;28;20472;-68
2023/02/25 04:23:58;;;;;;;11.13;4.40;;;3.00;99.90;;;;;;5027795;28;20459;-68
2023/02/25 04:26:25;;;;;;;13.75;4.80;;;3.00;99.90;;;;;;5027186;28;20132;-67
2023/02/25 04:28:53;;;;;;;12.65;5.10;;;3.00;99.90;;;;;;5030550;28;20462;-67
2023/02/25 04:31:20;;;;;;;12.77;4.22;;;3.00;99.90;;;;;;5029809;28;20038;-67
2023/02/25 04:33:48;;;;;;;12.90;4.63;;;3.10;99.90;;;;;;5029466;28;20423;-67
2023/02/25 04:36:22;;;;;;;12.18;4.22;;;3.00;99.90;;;;;;5033099;28;20131;-68
2023/02/25 04:38:50;;;;;;;13.65;3.70;;;3.00;99.90;;;;;;5046184;28;20124;-68
2023/02/25 04:41:17;;;;;;;10.30;3.90;;;3.00;99.90;;;;;;5029585;28;20114;-68
2023/02/25 04:43:45;;;;;;;12.85;4.32;;;3.00;99.90;;;;;;5036164;28;20547;-67
2023/02/25 04:46:12;;;;;;;10.70;3.55;;;3.10;99.90;;;;;;5025696;28;20254;-68
2023/02/25 04:48:39;;;;;;;8.52;4.00;;;3.10;99.90;;;;;;5027009;28;20047;-68
2023/02/25 04:51:07;;;;;;;10.90;3.80;;;3.10;99.90;;;;;;5055169;28;20048;-67
2023/02/25 04:53:34;;;;;;;9.38;4.20;;;3.10;99.90;;;;;;5028015;28;20655;-68
2023/02/25 04:56:04;;;;;;;8.75;3.90;;;3.10;99.90;;;;;;5029467;28;20037;-69
2023/02/25 04:58:32;;;;;;;7.85;3.78;;;3.00;99.90;;;;;;5029822;28;20103;-69
2023/02/25 05:01:01;;;;;;;13.30;4.63;;;3.00;99.90;;;;;;5039332;28;20045;-68
2023/02/25 05:03:29;;;;;;;11.70;3.88;;;3.00;99.90;;;;;;5045606;28;20319;-69
2023/02/25 05:05:56;;;;;;;9.13;3.95;;;3.00;99.90;;;;;;5043783;28;20096;-68
2023/02/25 05:08:24;;;;;;;11.00;4.25;;;3.00;99.90;;;;;;5027449;28;20046;-69
2023/02/25 05:10:51;;;;;;;10.68;4.55;;;3.10;99.90;;;;;;5030572;28;20041;-68
2023/02/25 05:13:19;;;;;;;10.77;3.63;;;3.10;99.90;;;;;;5035223;28;20057;-68
2023/02/25 05:15:46;;;;;;;14.88;4.05;;;3.00;99.90;;;;;;5048324;28;20515;-68
2023/02/25 05:18:14;;;;;;;13.00;4.25;;;3.00;99.90;;;;;;5033500;28;20488;-67
2023/02/25 05:20:46;;;;;;;13.15;3.78;;;3.00;99.90;;;;;;5030715;28;20054;-68
2023/02/25 05:23:13;;;;;;;12.25;4.30;;;3.00;99.90;;;;;;5047795;28;20041;-67
2023/02/25 05:25:40;;;;;;;9.63;3.72;;;3.00;99.90;;;;;;5038550;28;20053;-67
2023/02/25 05:28:11;;;;;;;16.80;5.45;;;3.10;99.90;;;;;;5029350;28;20045;-66
2023/02/25 05:30:38;;;;;;;9.05;4.22;;;3.10;99.90;;;;;;5041167;28;20118;-67
2023/02/25 05:33:07;;;;;;;11.88;4.13;;;3.00;99.90;;;;;;5028461;28;20128;-67
2023/02/25 05:35:38;;;;;;;12.93;4.97;;;3.00;99.90;;;;;;5029001;28;20141;-67
2023/02/25 05:38:06;;;;;;;15.55;4.35;;;3.00;99.90;;;;;;5046483;28;20444;-68
2023/02/25 05:40:35;;;;;;;10.23;4.00;;;3.00;99.90;;;;;;5047470;28;20103;-66
2023/02/25 05:43:02;;;;;;;14.25;4.68;;;3.00;99.90;;;;;;5041892;28;20048;-69
2023/02/25 05:45:29;;;;;;;9.00;4.00;;;3.00;99.90;;;;;;5047394;28;20041;-67
2023/02/25 05:47:56;;;;;;;11.85;4.35;;;3.00;99.90;;;;;;5028362;28;20496;-67
2023/02/25 05:50:24;;;;;;;11.23;4.05;;;3.00;99.90;;;;;;5027354;28;20056;-67
2023/02/25 05:52:51;;;;;;;8.80;4.00;;;3.00;99.90;;;;;;5028387;28;20131;-70
2023/02/25 05:55:18;;;;;;;12.63;3.97;;;3.00;99.90;;;;;;5032492;28;20052;-68
2023/02/25 05:57:46;;;;;;;8.60;4.25;;;3.00;99.90;;;;;;5039656;28;20036;-68
2023/02/25 06:00:13;;;;;;;11.07;5.15;;;3.00;99.90;;;;;;5046003;28;20400;-68
2023/02/25 06:02:43;;;;;;;10.40;3.85;;;3.00;99.90;;;;;;5051428;28;20135;-68
2023/02/25 06:05:10;;;;;;;9.20;3.72;;;3.00;99.90;;;;;;5050306;28;20119;-69
2023/02/25 06:07:37;;;;;;;10.27;4.07;;;3.10;99.90;;;;;;5039274;28;20106;-68
2023/02/25 06:10:06;;;;;;;13.80;4.25;;;3.10;99.90;;;;;;5048781;28;20045;-68
2023/02/25 06:12:33;;;;;;;14.52;4.47;;;3.10;99.90;;;;;;5048659;28;20045;-68
2023/02/25 06:15:01;;;;;;;10.88;4.38;;;3.10;99.90;;;;;;5052004;28;20497;-68
2023/02/25 06:17:28;;;;;;;16.85;4.45;;;3.10;99.90;;;;;;5033970;28;20140;-68
2023/02/25 06:19:55;;;;;;;12.13;3.97;;;3.10;99.90;;;;;;5032925;28;20571;-68
2023/02/25 06:22:23;;;;;;;8.95;3.72;;;3.10;99.90;;;;;;5032458;28;20042;-68
2023/02/25 06:24:50;;;;;;;12.30;3.30;;;3.20;99.90;;;;;;5030871;28;20045;-67
2023/02/25 06:27:17;;;;;;;10.73;3.72;;;3.20;99.90;;;;;;5032640;28;20049;-68
2023/02/25 06:29:47;;;;;;;9.02;3.63;;;3.20;99.90;;;;;;5045427;28;20039;-68
2023/02/25 06:32:14;;;;;;;8.82;3.95;;;3.20;99.90;;;;;;5057439;28;20812;-67
2023/02/25 06:34:42;;;;;;;14.50;4.05;;;3.20;99.90;;;;;;5068395;28;20090;-67
2023/02/25 06:37:09;;;;;;;10.02;4.00;;;3.20;99.90;;;;;;5037777;28;20490;-68
2023/02/25 06:39:37;;;;;;;7.63;3.42;;;3.20;99.90;;;;;;5032104;28;20049;-67
2023/02/25 06:42:04;;;;;;;8.43;3.63;;;3.20;99.90;;;;;;5031382;28;20045;-68
2023/02/25 06:44:31;;;;;;;10.23;3.83;;;3.20;99.90;;;;;;5052662;28;20056;-68
2023/02/25 06:46:59;;;;;;;8.88;3.65;;;3.30;99.90;;;;;;5038363;28;20064;-69
2023/02/25 06:49:26;;;;;;;11.48;3.67;;;3.20;99.90;;;;;;5032177;28;20396;-71
2023/02/25 06:51:53;;;;;;;9.43;3.20;;;3.20;99.90;;;;;;5030243;28;20041;-68
2023/02/25 06:54:21;;;;;;;8.68;3.50;;;3.30;99.90;;;;;;5031180;28;20140;-68
2023/02/25 06:56:48;;;;;;;11.82;4.10;;;3.30;99.90;;;;;;5031872;28;20492;-69
2023/02/25 06:59:15;;;;;;;7.50;3.88;;;3.30;99.90;;;;;;5032975;28;20045;-69
2023/02/25 07:01:42;;;;;;;15.35;4.25;;;3.30;99.90;;;;;;5047699;28;20044;-69
2023/02/25 07:04:14;;;;;;;10.02;3.63;;;3.30;99.90;;;;;;5050303;28;20045;-68
2023/02/25 07:06:42;;;;;;;10.02;3.90;;;3.30;99.90;;;;;;5051369;28;20068;-69
2023/02/25 07:09:10;;;;;;;11.80;4.13;;;3.30;99.90;;;;;;5051885;28;20052;-69
2023/02/25 07:11:37;;;;;;;14.73;3.80;;;3.30;99.90;;;;;;5032657;28;20407;-69
2023/02/25 07:14:05;;;;;;;12.90;4.15;;;3.40;99.90;;;;;;5043703;28;20095;-69
2023/02/25 07:16:33;;;;;;;8.07;3.75;;;3.40;99.90;;;;;;5049340;28;20055;-68
2023/02/25 07:19:03;;;;;;;9.27;4.30;;;3.40;99.90;;;;;;5051028;28;20055;-66
2023/02/25 07:21:32;;;;;;;10.48;4.05;;;3.40;99.90;;;;;;5027192;28;20091;-69
2023/02/25 07:23:59;;;;;;;11.32;4.47;;;3.40;99.90;;;;;;5031447;28;20072;-68
2023/02/25 07:26:27;;;;;;;9.23;3.88;;;3.40;99.90;;;;;;5043045;28;20136;-69
2023/02/25 07:28:56;;;;;;;10.40;3.97;;;3.50;99.90;;;;;;5051468;28;20530;-68
2023/02/25 07:31:24;;;;;;;8.77;3.53;;;3.50;99.90;;;;;;5037082;28;20046;-68
2023/02/25 07:33:58;;;;;;;9.68;3.75;;;3.50;99.90;;;;;;5049453;28;20492;-68
2023/02/25 07:36:27;;;;;;;7.70;3.67;;;3.60;99.90;;;;;;5051241;28;20120;-69
2023/02/25 07:38:54;;;;;;;8.98;3.92;;;3.60;99.90;;;;;;5046056;28;20041;-68
2023/02/25 07:41:21;;;;;;;12.05;4.07;;;3.60;99.90;;;;;;5029804;28;20065;-67
2023/02/25 07:43:49;;;;;;;14.32;4.40;;;3.70;99.90;;;;;;5031999;28;20046;-68
2023/02/25 07:46:16;;;;;;;11.18;4.10;;;3.70;99.90;;;;;;5030289;28;20037;-68
2023/02/25 07:48:44;;;;;;;13.95;4.30;;;3.80;99.90;;;;;;5032375;28;20444;-64
2023/02/25 07:51:17;;;;;;;11.85;3.85;;;3.80;99.90;;;;;;5033054;28;20045;-67
2023/02/25 07:53:46;;;;;;;7.30;3.88;;;3.80;99.90;;;;;;5035683;28;20037;-67
2023/02/25 07:56:15;;;;;;;9.77;4.28;;;3.80;99.90;;;;;;5030710;28;20037;-66
2023/02/25 07:58:42;;;;;;;11.52;3.78;;;3.80;99.90;;;;;;5029424;28;20065;-66
2023/02/25 08:01:22;;;;;;;12.25;4.05;;;3.90;99.90;;;;;;5029606;28;20048;-67
2023/02/25 08:03:55;;;;;;;7.05;3.70;;;3.90;99.90;;;;;;5030218;28;20376;-67
2023/02/25 08:06:23;;;;;;;15.50;4.28;;;3.90;99.90;;;;;;5046805;28;20063;-68
2023/02/25 08:08:50;;;;;;;13.38;4.03;;;3.90;99.90;;;;;;5038553;28;20483;-67
2023/02/25 08:11:19;;;;;;;14.25;4.55;;;3.90;99.90;;;;;;5036743;28;20140;-69
2023/02/25 08:13:47;;;;;;;10.98;3.90;;;3.90;99.90;;;;;;5049261;28;20040;-67
2023/02/25 08:16:16;;;;;;;9.10;3.97;;;4.00;99.90;;;;;;5050124;28;20491;-68
2023/02/25 08:18:45;;;;;;;11.52;4.35;;;4.20;99.90;;;;;;5038308;28;20503;-67
2023/02/25 08:21:16;;;;;;;14.35;4.18;;;4.30;99.90;;;;;;5032404;28;20458;-67
2023/02/25 08:23:44;;;;;;;12.05;3.85;;;4.40;99.90;;;;;;5030097;28;20496;-68
2023/02/25 08:26:12;;;;;;;12.80;3.90;;;4.60;99.90;;;;;;5038950;28;20128;-69
2023/02/25 08:28:39;;;;;;;10.90;4.05;;;4.80;99.90;;;;;;5047853;28;20045;-67
2023/02/25 08:31:10;;;;;;;12.15;4.40;;;4.80;99.90;;;;;;5049790;28;20037;-67
2023/02/25 08:33:42;;;;;;;12.13;4.22;;;4.70;99.90;;;;;;5049411;28;20052;-67
2023/02/25 08:36:12;;;;;;;11.35;4.90;;;4.60;99.90;;;;;;5048214;28;20140;-67
2023/02/25 08:38:39;;;;;;;9.15;4.35;;;4.70;99.90;;;;;;5050876;28;20060;-68
2023/02/25 08:41:07;;;;;;;11.98;4.43;;;4.80;99.90;;;;;;5045525;28;20037;-68
2023/02/25 08:43:36;;;;;;;17.45;4.78;;;4.80;99.90;;;;;;5032810;28;20443;-68
2023/02/25 08:46:05;;;;;;;10.48;4.38;;;4.80;99.90;;;;;;5034877;28;20041;-68
2023/02/25 08:48:34;;;;;;;9.45;4.82;;;5.00;99.90;;;;;;5028054;28;20064;-68
2023/02/25 08:51:07;;;;;;;11.90;4.50;;;5.00;99.90;;;;;;5038172;28;20482;-68
2023/02/25 08:53:39;;;;;;;12.63;4.65;;;4.80;99.90;;;;;;5050502;28;20029;-72
2023/02/25 08:56:07;;;;;;;;;;;4.70;99.90;;;;;;5049666;28;20041;-70
2023/02/25 08:58:35;;;;;;;11.48;4.45;;;4.70;99.90;;;;;;5050411;28;19921;-68
2023/02/25 09:01:14;;;;;;;13.65;5.10;;;4.80;99.90;;;;;;5042217;28;20484;-69
2023/02/25 09:03:50;;;;;;;11.88;5.28;;;5.00;99.90;;;;;;5026599;28;20578;-68
2023/02/25 09:06:20;;;;;;;9.95;4.70;;;5.10;99.90;;;;;;5026720;28;20526;-67
2023/02/25 09:08:47;;;;;;;8.32;4.68;;;5.20;99.90;;;;;;5047218;28;20496;-68
2023/02/25 09:11:15;;;;;;;11.65;4.85;;;5.20;99.90;;;;;;5047133;28;20124;-67
2023/02/25 09:13:43;;;;;;;8.70;4.47;;;5.00;99.90;;;;;;5039819;28;20045;-67
2023/02/25 09:16:10;;;;;;;13.93;5.55;;;4.80;99.90;;;;;;5027093;28;20463;-68
2023/02/25 09:18:38;;;;;;;12.95;4.93;;;4.80;99.90;;;;;;5029144;28;20033;-68
2023/02/25 09:21:05;;;;;;;11.27;4.93;;;4.90;99.90;;;;;;5028363;28;20145;-69
2023/02/25 09:23:32;;;;;;;14.38;4.70;;;4.90;99.90;;;;;;5027161;28;20052;-73
2023/02/25 09:26:04;;;;;;;13.55;4.80;;;4.80;99.90;;;;;;5043517;28;20049;-72
2023/02/25 09:28:33;;;;;;;13.73;5.35;;;4.70;99.90;;;;;;5049526;28;20360;-72
2023/02/25 09:31:01;;;;;;;19.00;5.07;;;4.70;99.90;;;;;;5036414;28;20365;-71
2023/02/25 09:33:31;;;;;;;13.98;5.38;;;4.80;99.90;;;;;;5032675;28;20087;-71
2023/02/25 09:36:10;;;;;;;16.48;4.70;;;4.90;99.90;;;;;;5034522;28;20406;-66
2023/02/25 09:38:39;;;;;;;9.07;4.20;;;4.80;99.90;;;;;;5040090;28;20379;-69
2023/02/25 09:41:27;;;;;;;7.40;4.22;;;4.70;99.90;;;;;;5047091;28;20056;-72
2023/02/25 09:44:13;;;;;;;12.32;4.50;;;4.60;99.90;;;;;;5049982;28;20515;-71
2023/02/25 09:46:59;;;;;;;10.85;4.43;;;4.60;99.90;;;;;;5049536;28;20438;-72
2023/02/25 09:49:41;;;;;;;13.68;4.20;;;4.70;99.90;;;;;;5049008;28;20407;-69
2023/02/25 09:52:28;;;;;;;10.57;4.15;;;4.60;99.90;;;;;;5036010;28;20045;-71
2023/02/25 09:55:02;;;;;;;9.90;3.97;;;4.70;99.90;;;;;;5035981;28;20045;-72
2023/02/25 09:57:34;;;;;;;9.20;3.78;;;4.60;99.90;;;;;;5032269;28;20476;-69
2023/02/25 10:00:08;;;;;;;12.90;4.68;;;4.80;99.90;;;;;;5022804;28;20458;-69
2023/02/25 10:02:48;;;;;;;9.60;4.28;;;4.70;99.90;;;;;;5046553;28;20041;-70
2023/02/25 10:05:38;;;;;;;11.82;4.75;;;4.80;99.90;;;;;;5040483;28;20049;-70
2023/02/25 10:08:14;;;;;;;10.68;3.80;;;4.80;99.90;;;;;;5031426;28;20049;-70
2023/02/25 10:10:50;;;;;;;11.63;4.00;;;5.00;99.90;;;;;;5043805;28;20343;-70
2023/02/25 10:14:05;;;;;;;11.13;4.25;;;4.90;99.90;;;;;;5040882;28;20091;-70
2023/02/25 10:16:50;;;;;;;15.43;4.63;;;5.00;99.90;;;;;;5033942;28;20076;-73
2023/02/25 10:19:29;;;;;;;9.02;3.92;;;5.30;99.90;;;;;;5038691;28;20048;-72
2023/02/25 10:22:30;;;;;;;10.65;3.70;;;5.50;99.90;;;;;;5029082;28;20594;-70
2023/02/25 10:25:10;;;;;;;8.15;3.88;;;5.60;99.90;;;;;;5036920;28;20056;-74
2023/02/25 10:27:49;;;;;;;10.60;4.40;;;5.60;99.90;;;;;;5044010;28;20541;-73
2023/02/25 10:30:30;;;;;;;10.32;5.03;;;5.80;99.90;;;;;;5051621;28;20103;-70
2023/02/25 10:33:04;;;;;;;12.18;5.15;;;5.80;99.90;;;;;;5032251;28;20038;-72
2023/02/25 10:35:37;;;;;;;12.15;4.43;;;5.70;99.90;;;;;;5031738;28;20069;-72
2023/02/25 10:38:04;;;;;;;11.63;4.80;;;5.60;99.90;;;;;;5032141;28;20056;-71
2023/02/25 10:40:32;;;;;;;12.43;4.57;;;5.60;99.90;;;;;;5031000;28;20085;-72
2023/02/25 10:43:08;;;;;;;12.52;4.53;;;5.50;99.90;;;;;;5023905;28;20490;-74
2023/02/25 10:45:39;;;;;;;10.73;5.03;;;5.50;99.90;;;;;;5018029;28;20127;-73
2023/02/25 10:48:11;;;;;;;8.30;3.83;;;5.50;99.90;;;;;;5021805;28;20532;-72
2023/02/25 10:50:38;;;;;;;8.07;4.13;;;5.40;99.90;;;;;;5046016;28;20033;-74
2023/02/25 10:53:15;;;;;;;9.20;3.83;;;5.40;99.90;;;;;;5049312;28;20037;-73
2023/02/25 10:55:42;;;;;;;11.55;4.13;;;5.60;99.90;;;;;;5045293;28;20046;-70
2023/02/25 10:58:33;;;;;;;8.68;3.70;;;5.70;99.90;;;;;;5034505;28;20171;-71
2023/02/25 11:01:18;;;;;;;11.43;4.00;;;5.90;99.90;;;;;;5033770;28;20450;-73
2023/02/25 11:04:01;;;;;;;8.40;6.22;;;5.90;99.90;;;;;;5021705;28;20045;-72
2023/02/25 11:06:36;;;;;;;9.85;4.40;;;5.80;99.90;;;;;;5043271;28;20202;-72
2023/02/25 11:09:23;;;;;;;7.97;3.70;;;6.00;99.90;;;;;;5031106;28;20463;-72
2023/02/25 11:11:57;;;;;;;12.23;5.47;;;6.10;99.90;;;;;;5044050;28;20053;-70
2023/02/25 11:14:32;;;;;;;11.68;3.58;;;6.20;99.90;;;;;;5028169;28;20148;-73
2023/02/25 11:17:20;;;;;;;9.10;3.83;;;6.40;99.90;;;;;;5028706;28;20044;-74
2023/02/25 11:20:04;;;;;;;11.85;3.92;;;6.60;99.90;;;;;;5029623;28;20124;-73
2023/02/25 11:22:40;;;;;;;10.05;4.32;;;6.30;99.90;;;;;;5040706;28;20045;-71
2023/02/25 11:25:16;;;;;;;9.00;4.03;;;6.10;99.90;;;;;;5030075;28;20508;-72
2023/02/25 11:27:49;;;;;;;13.25;4.38;;;5.30;99.90;;;;;;5032813;28;20125;-71
2023/02/25 11:30:25;;;;;;;9.10;3.70;;;4.60;99.90;;;;;;5044392;28;20432;-71
2023/02/25 11:32:56;;;;;;;9.93;4.00;;;4.30;99.90;;;;;;5033315;28;20538;-70
2023/02/25 11:35:31;;;;;;;11.15;4.28;;;4.30;99.90;;;;;;5031997;28;20519;-71
2023/02/25 11:38:23;;;;;;;12.75;4.47;;;4.60;99.90;;;;;;5014389;28;20050;-70
2023/02/25 11:40:51;;;;;;;8.30;4.60;;;5.10;99.90;;;;;;5039573;28;20069;-71
2023/02/25 11:43:21;;;;;;;11.10;4.68;;;5.90;99.90;;;;;;5040259;28;20037;-70
2023/02/25 11:46:00;;;;;;;11.48;4.80;;;6.50;99.90;;;;;;5040796;28;20526;-70
2023/02/25 11:48:46;;;;;;;13.95;4.57;;;7.00;99.90;;;;;;5040218;28;20045;-70
2023/02/25 11:51:45;;;;;;;10.48;4.32;;;6.60;99.90;;;;;;5030191;28;20037;-70
2023/02/25 11:54:36;;;;;;;7.40;3.90;;;5.70;99.90;;;;;;5031107;28;20052;-71
2023/02/25 11:57:11;;;;;;;12.13;3.90;;;4.60;99.90;;;;;;5039106;28;20044;-75
2023/02/25 12:00:28;;;;;;;8.23;4.75;;;4.20;99.90;;;;;;5043833;28;20174;-70
2023/02/25 12:03:34;;;;;;;8.23;5.50;;;3.90;99.90;;;;;;5039618;28;20060;-67
2023/02/25 12:06:36;;;;;;;9.30;4.25;;;3.80;99.90;;;;;;5045178;28;20079;-67
2023/02/25 12:09:09;;;;;;;;;;;3.80;99.90;;;;;;5032164;28;20045;-67
2023/02/25 12:12:14;;;;;;;11.45;4.97;;;3.90;99.90;;;;;;5040755;28;20364;-67
2023/02/25 12:15:19;;;;;;;8.90;4.22;;;4.00;99.90;;;;;;5046785;28;20077;-69
2023/02/25 12:18:20;;;;;;;12.85;4.80;;;4.10;99.90;;;;;;5044247;28;20041;-67
2023/02/25 12:21:02;;;;;;;11.95;5.55;;;4.10;99.90;;;;;;4995480;28;20420;-65
2023/02/25 12:24:11;;;;;;;8.48;4.68;;;5.10;99.90;;;;;;5029614;28;20506;-66
2023/02/25 12:27:07;;;;;;;10.85;4.80;;;5.40;99.90;;;;;;5056153;28;20051;-67
2023/02/25 12:29:53;;;;;;;9.20;4.63;;;5.40;99.90;;;;;;5051083;28;20580;-67
2023/02/25 12:32:23;;;;;;;8.98;4.10;;;5.70;99.90;;;;;;5065290;28;20123;-67
2023/02/25 12:35:14;;;;;;;8.95;4.50;;;6.00;99.90;;;;;;5050302;28;20060;-66
2023/02/25 12:37:53;;;;;;;10.02;4.28;;;6.20;99.90;;;;;;5087028;28;20204;-67
2023/02/25 12:40:31;;;;;;;8.20;3.58;;;6.80;99.90;;;;;;5058621;28;20044;-67
2023/02/25 12:43:12;;;;;;;9.27;3.38;;;6.80;99.90;;;;;;5055805;28;20056;-68
2023/02/25 12:45:52;;;;;;;6.85;3.03;;;6.50;99.90;;;;;;5056033;28;20044;-66
2023/02/25 12:48:31;;;;;;;5.55;2.75;;;6.40;99.90;;;;;;5072293;28;20041;-73
2023/02/25 12:51:36;;;;;;;6.05;3.15;;;6.30;99.90;;;;;;5049632;28;20067;-68
2023/02/25 12:54:19;;;;;;;4.03;2.28;;;6.40;99.90;;;;;;5065510;28;20044;-67
2023/02/25 12:56:46;;;;;;;5.72;2.67;;;6.40;99.90;;;;;;5050792;28;20402;-67
2023/02/25 12:59:40;;;;;;;4.00;2.47;;;6.80;99.90;;;;;;5067842;28;20098;-68
2023/02/25 13:02:13;;;;;;;7.22;2.97;;;6.70;99.90;;;;;;5076002;28;20614;-67
2023/02/25 13:05:05;;;;;;;4.82;2.70;;;6.50;99.90;;;;;;5048723;28;20507;-68
2023/02/25 13:07:44;;;;;;;6.38;2.78;;;5.90;99.90;;;;;;5037643;28;20064;-68
2023/02/25 13:10:28;;;;;;;4.78;2.72;;;5.60;99.90;;;;;;5030764;28;20092;-67
2023/02/25 13:13:19;;;;;;;4.18;2.65;;;5.80;99.90;;;;;;5047723;28;20550;-69
2023/02/25 13:16:17;;;;;;;6.88;3.60;;;6.50;99.90;;;;;;5032536;28;20057;-70
2023/02/25 13:19:01;;;;;;;5.07;2.03;;;6.40;99.90;;;;;;5011336;28;20045;-67
2023/02/25 13:21:50;;;;;;;4.28;1.80;;;4.20;99.90;;;;;;5039269;28;20057;-68
2023/02/25 13:24:47;;;;;;;3.00;1.48;;;3.10;99.90;;;;;;5045948;28;20045;-68